createdAt,value
2019-01-08T00:01:32.460Z,17.43
2019-01-08T00:03:59.309Z,22.80
2019-01-08T00:06:25.728Z,21.50
2019-01-08T00:08:52.066Z,20.83
2019-01-08T00:11:18.451Z,23.03
2019-01-08T00:13:44.950Z,20.60
2019-01-08T00:16:11.476Z,21.67
2019-01-08T00:18:37.879Z,22.23
2019-01-08T00:21:04.385Z,24.40
2019-01-08T00:23:30.799Z,19.80
2019-01-08T00:25:57.146Z,20.93
2019-01-08T00:28:23.522Z,15.57
2019-01-08T00:30:50.050Z,14.07
2019-01-08T00:33:16.454Z,14.70
2019-01-08T00:35:43.015Z,17.57
2019-01-08T00:38:09.324Z,16.57
2019-01-08T00:40:35.891Z,16.00
2019-01-08T00:43:02.435Z,17.17
2019-01-08T00:45:28.882Z,20.53
2019-01-08T00:47:55.285Z,22.60
2019-01-08T00:50:21.616Z,16.50
2019-01-08T00:52:48.029Z,16.40
2019-01-08T00:55:14.385Z,19.33
2019-01-08T00:57:40.716Z,21.73
2019-01-08T01:00:08.751Z,20.17
2019-01-08T01:02:35.201Z,27.43
2019-01-08T01:05:02.610Z,19.00
2019-01-08T01:07:29.133Z,21.67
2019-01-08T01:09:55.519Z,11.90
2019-01-08T01:12:22.043Z,19.47
2019-01-08T01:14:48.578Z,19.77
2019-01-08T01:17:14.891Z,18.17
2019-01-08T01:19:41.410Z,24.00
2019-01-08T01:22:07.692Z,18.03
2019-01-08T01:24:34.122Z,18.53
2019-01-08T01:27:00.609Z,20.73
2019-01-08T01:29:27.136Z,18.70
2019-01-08T01:31:53.586Z,18.00
2019-01-08T01:34:20.001Z,17.10
2019-01-08T01:36:46.405Z,22.87
2019-01-08T01:39:12.748Z,17.13
2019-01-08T01:41:39.159Z,14.47
2019-01-08T01:44:05.661Z,15.53
2019-01-08T01:46:32.084Z,19.70
2019-01-08T01:48:58.560Z,23.20
2019-01-08T01:51:25.020Z,23.37
2019-01-08T01:53:51.330Z,16.00
2019-01-08T01:56:17.660Z,25.40
2019-01-08T01:58:44.181Z,21.37
2019-01-08T02:01:10.497Z,18.53
2019-01-08T02:03:36.967Z,22.07
2019-01-08T02:06:03.464Z,23.47
2019-01-08T02:08:29.800Z,22.13
2019-01-08T02:10:56.292Z,22.97
2019-01-08T02:13:22.935Z,23.37
2019-01-08T02:15:49.459Z,19.47
2019-01-08T02:18:15.831Z,22.17
2019-01-08T02:20:42.339Z,32.53
2019-01-08T02:23:08.840Z,25.37
2019-01-08T02:25:35.251Z,23.10
2019-01-08T02:28:01.650Z,20.80
2019-01-08T02:30:28.207Z,22.03
2019-01-08T02:32:54.611Z,17.20
2019-01-08T02:35:21.016Z,25.97
2019-01-08T02:37:47.430Z,24.40
2019-01-08T02:40:13.716Z,24.07
2019-01-08T02:42:40.054Z,24.53
2019-01-08T02:45:06.676Z,25.57
2019-01-08T02:47:33.085Z,25.90
2019-01-08T02:49:59.470Z,27.47
2019-01-08T02:52:25.870Z,22.40
2019-01-08T02:54:52.272Z,24.73
2019-01-08T02:57:18.779Z,21.60
2019-01-08T02:59:45.316Z,28.90
2019-01-08T03:02:11.909Z,23.43
2019-01-08T03:04:38.494Z,30.57
2019-01-08T03:07:05.074Z,25.80
2019-01-08T03:09:33.499Z,28.13
2019-01-08T03:11:59.976Z,31.53
2019-01-08T03:14:26.335Z,29.50
2019-01-08T03:16:52.750Z,23.33
2019-01-08T03:19:19.127Z,27.30
2019-01-08T03:21:45.655Z,35.97
2019-01-08T03:24:12.006Z,29.47
2019-01-08T03:26:38.541Z,27.57
2019-01-08T03:29:04.912Z,26.13
2019-01-08T03:31:31.471Z,30.87
2019-01-08T03:33:58.019Z,25.27
2019-01-08T03:36:24.888Z,30.97
2019-01-08T03:38:51.616Z,36.80
2019-01-08T03:41:18.048Z,32.90
2019-01-08T03:43:44.568Z,24.10
2019-01-08T03:46:11.099Z,28.17
2019-01-08T03:48:37.410Z,28.77
2019-01-08T03:51:04.002Z,29.60
2019-01-08T03:53:30.301Z,28.67
2019-01-08T03:55:56.599Z,34.87
2019-01-08T03:58:22.924Z,26.47
2019-01-08T04:00:49.332Z,36.60
2019-01-08T04:03:15.629Z,27.37
2019-01-08T04:05:41.962Z,32.83
2019-01-08T04:08:08.444Z,27.83
2019-01-08T04:10:34.842Z,28.13
2019-01-08T04:13:01.265Z,28.83
2019-01-08T04:15:27.955Z,30.90
2019-01-08T04:17:54.376Z,32.37
2019-01-08T04:20:23.336Z,26.77
2019-01-08T04:22:49.708Z,35.30
2019-01-08T04:25:16.084Z,27.43
2019-01-08T04:27:42.490Z,33.50
2019-01-08T04:30:09.016Z,23.60
2019-01-08T04:32:35.502Z,30.60
2019-01-08T04:35:02.091Z,27.23
2019-01-08T04:37:28.476Z,26.07
2019-01-08T04:39:54.891Z,27.13
2019-01-08T04:42:21.294Z,25.33
2019-01-08T04:44:47.691Z,22.93
2019-01-08T04:47:14.034Z,24.40
2019-01-08T04:49:40.445Z,29.03
2019-01-08T04:52:06.850Z,27.10
2019-01-08T04:54:33.274Z,29.80
2019-01-08T04:56:59.666Z,31.30
2019-01-08T04:59:26.074Z,32.50
2019-01-08T05:01:52.477Z,33.17
2019-01-08T05:04:18.802Z,27.07
2019-01-08T05:06:45.327Z,35.37
2019-01-08T05:09:11.696Z,24.60
2019-01-08T05:11:38.226Z,26.90
2019-01-08T05:14:04.820Z,27.10
2019-01-08T05:16:31.325Z,27.17
2019-01-08T05:18:57.879Z,36.53
2019-01-08T05:21:24.391Z,31.47
2019-01-08T05:23:50.771Z,30.50
2019-01-08T05:26:17.345Z,31.40
2019-01-08T05:28:43.866Z,30.70
2019-01-08T05:31:10.307Z,27.70
2019-01-08T05:33:36.738Z,35.80
2019-01-08T05:36:03.233Z,26.80
2019-01-08T05:38:29.621Z,24.50
2019-01-08T05:40:56.019Z,28.30
2019-01-08T05:43:22.436Z,28.87
2019-01-08T05:45:48.790Z,23.40
2019-01-08T05:48:15.207Z,27.33
2019-01-08T05:50:41.619Z,29.77
2019-01-08T05:53:07.904Z,26.67
2019-01-08T05:55:34.353Z,26.43
2019-01-08T05:58:00.884Z,34.53
2019-01-08T06:00:27.290Z,27.57
2019-01-08T06:02:53.724Z,26.40
2019-01-08T06:05:20.035Z,27.73
2019-01-08T06:07:46.320Z,29.87
2019-01-08T06:10:12.787Z,36.80
2019-01-08T06:12:39.102Z,32.67
2019-01-08T06:15:05.934Z,22.03
2019-01-08T06:17:32.466Z,30.97
2019-01-08T06:19:58.910Z,34.60
2019-01-08T06:22:25.350Z,29.93
2019-01-08T06:24:51.825Z,25.33
2019-01-08T06:27:18.192Z,27.43
2019-01-08T06:29:44.456Z,28.40
2019-01-08T06:32:11.097Z,28.00
2019-01-08T06:34:37.592Z,30.97
2019-01-08T06:37:04.007Z,25.87
2019-01-08T06:39:30.519Z,34.17
2019-01-08T06:41:57.008Z,27.83
2019-01-08T06:44:23.542Z,26.57
2019-01-08T06:46:50.042Z,22.50
2019-01-08T06:49:16.364Z,22.47
2019-01-08T06:51:42.869Z,27.60
2019-01-08T06:54:09.259Z,20.10
2019-01-08T06:56:35.745Z,18.37
2019-01-08T06:59:02.236Z,22.50
2019-01-08T07:01:28.798Z,21.00
2019-01-08T07:03:55.201Z,20.10
2019-01-08T07:06:21.674Z,19.73
2019-01-08T07:08:47.967Z,16.93
2019-01-08T07:11:14.549Z,15.63
2019-01-08T07:13:41.086Z,19.67
2019-01-08T07:16:07.455Z,17.93
2019-01-08T07:18:33.777Z,16.10
2019-01-08T07:21:00.282Z,16.07
2019-01-08T07:23:26.562Z,11.83
2019-01-08T07:25:53.005Z,13.37
2019-01-08T07:28:19.314Z,19.27
2019-01-08T07:30:45.843Z,19.53
2019-01-08T07:33:12.331Z,25.47
2019-01-08T07:35:38.638Z,19.33
2019-01-08T07:38:05.035Z,18.67
2019-01-08T07:40:31.517Z,25.03
2019-01-08T07:42:58.018Z,17.87
2019-01-08T07:45:24.642Z,14.70
2019-01-08T07:47:50.996Z,18.33
2019-01-08T07:50:17.507Z,16.20
2019-01-08T07:52:43.941Z,12.27
2019-01-08T07:55:10.266Z,15.57
2019-01-08T07:57:36.809Z,11.90
2019-01-08T08:00:05.941Z,17.90
2019-01-08T08:02:32.317Z,13.00
2019-01-08T08:04:58.666Z,17.50
2019-01-08T08:07:25.073Z,22.17
2019-01-08T08:09:51.463Z,16.73
2019-01-08T08:12:18.031Z,18.60
2019-01-08T08:14:44.436Z,22.13
2019-01-08T08:17:10.847Z,16.80
2019-01-08T08:19:37.361Z,21.17
2019-01-08T08:22:04.020Z,19.57
2019-01-08T08:24:30.426Z,24.90
2019-01-08T08:26:56.833Z,25.30
2019-01-08T08:29:23.282Z,27.17
2019-01-08T08:31:49.696Z,25.77
2019-01-08T08:34:16.181Z,20.87
2019-01-08T08:36:42.696Z,17.77
2019-01-08T08:39:09.226Z,21.77
2019-01-08T08:41:35.622Z,22.77
2019-01-08T08:44:02.112Z,17.60
2019-01-08T08:46:28.571Z,26.10
2019-01-08T08:48:55.077Z,27.07
2019-01-08T08:51:21.616Z,24.00
2019-01-08T08:53:52.442Z,28.73
2019-01-08T08:56:16.327Z,18.07
2019-01-08T08:58:42.771Z,19.03
2019-01-08T09:01:09.071Z,26.53
2019-01-08T09:03:35.625Z,19.40
2019-01-08T09:06:01.942Z,23.70
2019-01-08T09:08:28.496Z,23.10
2019-01-08T09:10:55.083Z,29.47
2019-01-08T09:13:21.599Z,23.60
2019-01-08T09:15:48.116Z,23.70
2019-01-08T09:18:14.623Z,25.47
2019-01-08T09:20:41.251Z,19.50
2019-01-08T09:23:07.858Z,24.47
2019-01-08T09:25:34.407Z,16.23
2019-01-08T09:28:00.830Z,19.90
2019-01-08T09:30:27.236Z,23.17
2019-01-08T09:32:53.683Z,30.87
2019-01-08T09:35:20.213Z,22.30
2019-01-08T09:37:46.660Z,26.63
2019-01-08T09:40:13.157Z,24.10
2019-01-08T09:42:39.772Z,29.30
2019-01-08T09:45:07.155Z,19.87
2019-01-08T09:47:33.561Z,25.53
2019-01-08T09:49:59.996Z,34.63
2019-01-08T09:52:26.593Z,32.00
2019-01-08T09:54:53.013Z,30.63
2019-01-08T09:57:19.421Z,20.50
2019-01-08T09:59:45.913Z,21.13
2019-01-08T10:02:12.551Z,30.67
2019-01-08T10:04:38.971Z,28.57
2019-01-08T10:07:05.378Z,25.87
2019-01-08T10:09:31.727Z,28.70
2019-01-08T10:11:58.157Z,23.00
2019-01-08T10:14:24.681Z,20.90
2019-01-08T10:16:51.083Z,28.33
2019-01-08T10:19:17.672Z,27.17
2019-01-08T10:21:43.953Z,19.83
2019-01-08T10:24:10.599Z,23.37
2019-01-08T10:26:37.352Z,27.87
2019-01-08T10:29:03.770Z,30.23
2019-01-08T10:31:32.631Z,25.73
2019-01-08T10:33:58.636Z,27.03
2019-01-08T10:36:25.276Z,31.63
2019-01-08T10:38:51.601Z,36.77
2019-01-08T10:41:18.108Z,28.60
2019-01-08T10:43:44.618Z,31.23
2019-01-08T10:46:11.265Z,28.07
2019-01-08T10:48:37.635Z,28.23
2019-01-08T10:51:04.261Z,30.80
2019-01-08T10:53:30.701Z,28.53
2019-01-08T10:55:57.023Z,25.63
2019-01-08T10:58:23.434Z,18.43
2019-01-08T11:00:49.823Z,26.67
2019-01-08T11:03:16.348Z,24.60
2019-01-08T11:05:42.858Z,27.33
2019-01-08T11:08:09.306Z,19.63
2019-01-08T11:10:35.728Z,25.20
2019-01-08T11:13:02.088Z,27.13
2019-01-08T11:15:28.472Z,30.07
2019-01-08T11:17:54.797Z,27.27
2019-01-08T11:20:21.442Z,27.07
2019-01-08T11:22:47.937Z,26.73
2019-01-08T11:25:14.486Z,20.30
2019-01-08T11:27:41.102Z,31.60
2019-01-08T11:30:07.691Z,30.50
2019-01-08T11:32:34.247Z,21.33
2019-01-08T11:35:00.687Z,20.87
2019-01-08T11:37:27.168Z,21.60
2019-01-08T11:39:53.767Z,24.63
2019-01-08T11:42:20.181Z,32.27
2019-01-08T11:44:46.691Z,26.93
2019-01-08T11:47:13.157Z,26.47
2019-01-08T11:49:39.446Z,23.33
2019-01-08T11:52:06.199Z,31.13
2019-01-08T11:54:40.637Z,21.20
2019-01-08T11:57:00.903Z,28.63
2019-01-08T11:59:27.311Z,34.63
2019-01-08T12:01:57.474Z,30.20
2019-01-08T12:04:22.448Z,21.47
2019-01-08T12:06:48.972Z,21.93
2019-01-08T12:09:15.629Z,29.73
2019-01-08T12:11:42.221Z,27.53
2019-01-08T12:14:08.803Z,33.13
2019-01-08T12:16:35.257Z,23.07
2019-01-08T12:19:01.770Z,24.80
2019-01-08T12:21:28.423Z,17.83
2019-01-08T12:23:54.722Z,25.90
2019-01-08T12:26:21.249Z,23.60
2019-01-08T12:28:47.842Z,28.30
2019-01-08T12:31:14.270Z,29.07
2019-01-08T12:33:40.723Z,31.23
2019-01-08T12:36:07.039Z,31.97
2019-01-08T12:38:33.488Z,50.17
2019-01-08T12:41:00.171Z,32.10
2019-01-08T12:43:26.703Z,35.03
2019-01-08T12:45:53.250Z,32.33
2019-01-08T12:48:19.855Z,27.53
2019-01-08T12:50:46.343Z,32.90
2019-01-08T12:53:12.933Z,27.50
2019-01-08T12:55:39.507Z,34.40
2019-01-08T12:58:06.014Z,30.77
2019-01-08T13:00:32.580Z,36.67
2019-01-08T13:02:59.153Z,26.03
2019-01-08T13:05:25.713Z,30.37
2019-01-08T13:07:52.378Z,29.93
2019-01-08T13:10:18.924Z,29.10
2019-01-08T13:12:45.331Z,29.93
2019-01-08T13:15:12.200Z,29.93
2019-01-08T13:17:38.837Z,27.87
2019-01-08T13:20:06.748Z,20.97
2019-01-08T13:22:33.268Z,29.97
2019-01-08T13:24:59.907Z,27.77
2019-01-08T13:27:26.349Z,25.83
2019-01-08T13:29:52.862Z,24.43
2019-01-08T13:32:23.285Z,22.97
2019-01-08T13:34:47.883Z,24.20
2019-01-08T13:37:14.507Z,30.57
2019-01-08T13:39:40.942Z,25.17
2019-01-08T13:42:07.469Z,23.70
2019-01-08T13:44:33.998Z,23.17
2019-01-08T13:47:00.578Z,19.90
2019-01-08T13:49:27.191Z,21.03
2019-01-08T13:51:53.807Z,20.70
2019-01-08T13:54:20.336Z,22.37
2019-01-08T13:56:47.149Z,31.17
2019-01-08T13:59:13.757Z,27.63
2019-01-08T14:01:40.451Z,25.27
2019-01-08T14:04:07.024Z,20.43
2019-01-08T14:06:33.757Z,22.23
2019-01-08T14:09:00.314Z,29.80
2019-01-08T14:11:26.824Z,30.50
2019-01-08T14:13:53.373Z,23.30
2019-01-08T14:16:19.772Z,20.97
2019-01-08T14:18:46.421Z,24.67
2019-01-08T14:21:12.924Z,21.53
2019-01-08T14:23:39.453Z,26.70
2019-01-08T14:26:06.095Z,22.43
2019-01-08T14:28:32.537Z,21.63
2019-01-08T14:30:59.169Z,25.00
2019-01-08T14:33:25.699Z,28.57
2019-01-08T14:35:52.392Z,20.43
2019-01-08T14:38:18.827Z,27.93
2019-01-08T14:40:45.515Z,25.03
2019-01-08T14:43:14.347Z,24.73
2019-01-08T14:45:40.803Z,28.13
2019-01-08T14:48:07.382Z,27.40
2019-01-08T14:50:34.053Z,20.23
2019-01-08T14:53:00.709Z,22.00
2019-01-08T14:55:27.333Z,27.50
2019-01-08T14:57:54.256Z,22.87
2019-01-08T15:00:20.785Z,26.07
2019-01-08T15:02:49.747Z,22.87
2019-01-08T15:05:15.980Z,19.43
2019-01-08T15:07:42.433Z,20.97
2019-01-08T15:10:09.203Z,13.60
2019-01-08T15:12:35.763Z,18.20
2019-01-08T15:15:02.839Z,18.77
2019-01-08T15:17:29.479Z,19.37
2019-01-08T15:19:56.049Z,14.97
2019-01-08T15:22:23.188Z,17.53
2019-01-08T15:24:49.664Z,15.80
2019-01-08T15:27:16.266Z,15.03
2019-01-08T15:29:42.878Z,23.30
2019-01-08T15:32:09.438Z,18.80
2019-01-08T15:34:36.078Z,27.63
2019-01-08T15:37:02.853Z,18.90
2019-01-08T15:39:29.514Z,21.27
2019-01-08T15:41:56.100Z,22.77
2019-01-08T15:44:22.958Z,22.40
2019-01-08T15:46:49.696Z,27.60
2019-01-08T15:49:16.138Z,21.93
2019-01-08T15:51:42.794Z,29.50
2019-01-08T15:54:09.562Z,26.53
2019-01-08T15:56:36.068Z,26.67
2019-01-08T15:59:03.551Z,25.83
2019-01-08T16:01:30.213Z,25.17
2019-01-08T16:03:56.672Z,30.47
2019-01-08T16:06:23.061Z,23.83
2019-01-08T16:08:49.488Z,27.00
2019-01-08T16:11:16.167Z,23.50
2019-01-08T16:13:42.655Z,28.17
2019-01-08T16:16:09.239Z,25.93
2019-01-08T16:18:35.802Z,27.53
2019-01-08T16:21:02.422Z,29.53
2019-01-08T16:23:29.714Z,28.47
2019-01-08T16:25:56.460Z,25.37
2019-01-08T16:28:23.053Z,26.00
2019-01-08T16:30:49.694Z,24.90
2019-01-08T16:33:16.544Z,24.83
2019-01-08T16:35:43.304Z,30.17
2019-01-08T16:38:09.828Z,22.00
2019-01-08T16:40:36.540Z,17.60
2019-01-08T16:43:03.309Z,16.97
2019-01-08T16:45:30.067Z,16.07
2019-01-08T16:47:56.467Z,10.30
2019-01-08T16:50:23.263Z,12.33
2019-01-08T16:52:49.935Z,10.17
2019-01-08T16:55:16.642Z,15.87
2019-01-08T16:57:43.442Z,10.33
2019-01-08T17:00:11.052Z,10.47
2019-01-08T17:02:37.609Z,14.20
2019-01-08T17:05:04.388Z,10.77
2019-01-08T17:07:31.011Z,12.87
2019-01-08T17:09:57.590Z,15.30
2019-01-08T17:12:24.467Z,12.03
2019-01-08T17:14:51.115Z,12.77
2019-01-08T17:17:17.592Z,16.33
2019-01-08T17:19:44.279Z,14.93
2019-01-08T17:22:11.127Z,17.07
2019-01-08T17:24:37.751Z,15.63
2019-01-08T17:27:04.479Z,18.67
2019-01-08T17:29:31.211Z,20.03
2019-01-08T17:31:58.026Z,18.87
2019-01-08T17:34:24.745Z,23.07
2019-01-08T17:36:51.475Z,21.83
2019-01-08T17:39:18.183Z,22.63
2019-01-08T17:41:44.813Z,25.60
2019-01-08T17:44:11.338Z,21.20
2019-01-08T17:46:37.881Z,16.00
2019-01-08T17:49:04.563Z,26.50
2019-01-08T17:51:31.173Z,19.53
2019-01-08T17:53:57.809Z,26.93
2019-01-08T17:56:24.505Z,33.33
2019-01-08T17:58:56.051Z,34.70
2019-01-08T18:01:23.666Z,22.03
2019-01-08T18:03:50.380Z,23.97
2019-01-08T18:06:17.105Z,31.17
2019-01-08T18:08:43.812Z,21.23
2019-01-08T18:11:10.458Z,33.27
2019-01-08T18:13:37.240Z,26.77
2019-01-08T18:16:03.873Z,27.60
2019-01-08T18:18:30.525Z,29.77
2019-01-08T18:20:57.160Z,25.37
2019-01-08T18:23:23.527Z,27.60
2019-01-08T18:25:50.116Z,30.53
2019-01-08T18:28:17.256Z,32.70
2019-01-08T18:30:43.968Z,28.10
2019-01-08T18:33:10.703Z,25.17
2019-01-08T18:35:37.415Z,25.67
2019-01-08T18:38:04.084Z,29.93
2019-01-08T18:40:30.642Z,24.97
2019-01-08T18:42:58.291Z,32.40
2019-01-08T18:45:25.099Z,28.87
2019-01-08T18:47:51.593Z,29.77
2019-01-08T18:50:18.010Z,20.07
2019-01-08T18:52:44.600Z,18.43
2019-01-08T18:55:11.203Z,19.00
2019-01-08T18:57:37.824Z,16.43
2019-01-08T19:00:07.605Z,17.93
2019-01-08T19:02:34.154Z,18.23
2019-01-08T19:05:00.746Z,16.13
2019-01-08T19:07:27.392Z,21.40
2019-01-08T19:09:59.235Z,15.90
2019-01-08T19:12:25.659Z,15.13
2019-01-08T19:14:52.375Z,15.77
2019-01-08T19:17:18.943Z,14.23
2019-01-08T19:19:45.564Z,16.83
2019-01-08T19:22:12.344Z,17.27
2019-01-08T19:24:38.978Z,11.27
2019-01-08T19:27:05.738Z,10.73
2019-01-08T19:29:32.646Z,15.40
2019-01-08T19:31:59.339Z,15.40
2019-01-08T19:34:26.031Z,19.57
2019-01-08T19:36:52.558Z,19.77
2019-01-08T19:39:19.214Z,19.03
2019-01-08T19:41:45.967Z,19.93
2019-01-08T19:44:12.647Z,25.40
2019-01-08T19:46:39.261Z,19.90
2019-01-08T19:49:05.895Z,21.77
2019-01-08T19:51:32.736Z,27.33
2019-01-08T19:53:59.578Z,26.73
2019-01-08T19:56:26.170Z,21.67
2019-01-08T19:58:52.910Z,24.47
2019-01-08T20:01:19.507Z,28.60
2019-01-08T20:03:46.156Z,26.07
2019-01-08T20:06:12.688Z,20.70
2019-01-08T20:08:39.391Z,26.00
2019-01-08T20:11:06.061Z,27.33
2019-01-08T20:13:32.672Z,27.87
2019-01-08T20:15:59.309Z,24.57
2019-01-08T20:18:25.985Z,24.50
2019-01-08T20:20:52.536Z,28.27
2019-01-08T20:23:19.869Z,27.57
2019-01-08T20:25:46.534Z,24.27
2019-01-08T20:28:13.345Z,22.47
2019-01-08T20:30:40.298Z,23.30
2019-01-08T20:33:06.853Z,26.17
2019-01-08T20:35:33.631Z,23.93
2019-01-08T20:38:00.238Z,24.87
2019-01-08T20:40:26.928Z,21.73
2019-01-08T20:42:53.558Z,22.70
2019-01-08T20:45:20.479Z,21.17
2019-01-08T20:47:47.671Z,25.30
2019-01-08T20:50:14.361Z,34.17
2019-01-08T20:52:41.240Z,25.83
2019-01-08T20:55:07.939Z,27.77
2019-01-08T20:57:34.871Z,22.03
2019-01-08T21:00:01.752Z,25.47
2019-01-08T21:02:28.524Z,24.83
2019-01-08T21:04:54.978Z,29.47
2019-01-08T21:07:21.773Z,22.07
2019-01-08T21:09:48.488Z,24.03
2019-01-08T21:12:15.233Z,20.77
2019-01-08T21:14:41.963Z,25.83
2019-01-08T21:17:08.637Z,28.07
2019-01-08T21:19:35.371Z,24.03
2019-01-08T21:22:02.022Z,20.67
2019-01-08T21:24:29.039Z,16.83
2019-01-08T21:26:55.858Z,19.43
2019-01-08T21:29:22.484Z,22.20
2019-01-08T21:31:49.292Z,22.40
2019-01-08T21:34:15.992Z,20.40
2019-01-08T21:36:43.011Z,18.80
2019-01-08T21:39:09.464Z,16.57
2019-01-08T21:41:36.222Z,16.87
2019-01-08T21:44:02.859Z,23.33
2019-01-08T21:46:29.419Z,23.40
2019-01-08T21:48:56.119Z,21.27
2019-01-08T21:51:22.622Z,19.13
2019-01-08T21:53:49.136Z,25.23
2019-01-08T21:56:15.726Z,19.37
2019-01-08T21:58:42.533Z,17.03
2019-01-08T22:01:09.227Z,17.60
2019-01-08T22:03:35.975Z,19.77
2019-01-08T22:06:02.689Z,25.47
2019-01-08T22:08:29.434Z,23.63
2019-01-08T22:10:56.216Z,22.57
2019-01-08T22:13:22.841Z,26.60
2019-01-08T22:15:49.908Z,25.67
2019-01-08T22:18:16.448Z,24.70
2019-01-08T22:20:43.156Z,20.60
2019-01-08T22:23:09.907Z,25.23
2019-01-08T22:25:36.491Z,19.57
2019-01-08T22:28:03.239Z,14.87
2019-01-08T22:30:29.807Z,17.43
2019-01-08T22:32:56.460Z,21.43
2019-01-08T22:35:23.111Z,19.73
2019-01-08T22:37:49.638Z,18.93
2019-01-08T22:40:16.386Z,18.60
2019-01-08T22:42:43.146Z,23.60
2019-01-08T22:45:09.625Z,21.33
2019-01-08T22:47:36.344Z,19.27
2019-01-08T22:50:05.811Z,18.67
2019-01-08T22:52:32.285Z,22.83
2019-01-08T22:54:58.770Z,23.27
2019-01-08T22:57:25.709Z,22.73
2019-01-08T22:59:52.389Z,21.77
2019-01-08T23:02:19.121Z,16.63
2019-01-08T23:04:45.838Z,15.33
2019-01-08T23:07:12.441Z,11.63
2019-01-08T23:09:39.160Z,14.43
2019-01-08T23:12:05.828Z,13.77
2019-01-08T23:14:32.370Z,18.23
2019-01-08T23:16:59.107Z,14.40
2019-01-08T23:19:25.608Z,10.37
2019-01-08T23:21:52.260Z,16.97
2019-01-08T23:24:18.856Z,12.33
2019-01-08T23:26:45.541Z,12.47
2019-01-08T23:29:12.222Z,10.13
2019-01-08T23:31:38.809Z,9.40
2019-01-08T23:34:05.494Z,11.53
2019-01-08T23:36:32.174Z,12.67
2019-01-08T23:38:58.950Z,10.70
2019-01-08T23:41:25.499Z,13.90
2019-01-08T23:43:52.164Z,15.73
2019-01-08T23:46:18.760Z,8.93
2019-01-08T23:48:45.437Z,22.63
2019-01-08T23:51:12.060Z,12.70
2019-01-08T23:53:39.402Z,14.20
2019-01-08T23:56:06.020Z,16.33
2019-01-08T23:58:32.510Z,17.80
